Time;durP1;ratioP1;P1;durP2;ratioP2;P2;SDS_P1;SDS_P2;PMS_P1;PMS_P2;Temp;Humidity;BMP_temperature;BMP_pressure;BME280_temperature;BME280_humidity;BME280_pressure;Samples;Min_cycle;Max_cycle;Signal;HPM_P1;HPM_P2
2023/07/01 00:00:57;;;;;;;0.00;0.00;;;16.70;99.90;;;;;;5076039;28;20040;-80
2023/07/01 00:03:23;;;;;;;0.00;0.00;;;16.70;99.90;;;;;;5077450;28;20350;-80
2023/07/01 00:05:49;;;;;;;0.00;0.00;;;16.70;99.90;;;;;;5076146;28;20021;-80
2023/07/01 00:08:14;;;;;;;0.00;0.00;;;16.70;99.90;;;;;;5076679;28;20033;-80
2023/07/01 00:10:40;;;;;;;0.00;0.00;;;16.70;99.90;;;;;;5058554;28;20025;-80
2023/07/01 00:13:06;;;;;;;0.00;0.00;;;16.70;99.90;;;;;;5040183;28;20060;-81
2023/07/01 00:15:32;;;;;;;0.00;0.00;;;16.70;99.90;;;;;;5075613;28;20036;-79
2023/07/01 00:17:57;;;;;;;0.00;0.00;;;16.80;99.90;;;;;;5058394;28;20119;-79
2023/07/01 00:20:26;;;;;;;0.00;0.00;;;16.80;99.90;;;;;;5083001;28;20016;-79
2023/07/01 00:22:52;;;;;;;0.00;0.00;;;16.80;99.90;;;;;;5087761;28;20020;-81
2023/07/01 00:25:18;;;;;;;0.00;0.00;;;16.80;99.90;;;;;;5078722;28;20103;-81
2023/07/01 00:27:44;;;;;;;0.00;0.00;;;16.90;99.90;;;;;;5076158;28;20449;-80
2023/07/01 00:30:10;;;;;;;0.00;0.00;;;16.90;99.90;;;;;;5057517;28;20020;-81
2023/07/01 00:32:36;;;;;;;0.00;0.00;;;16.90;99.90;;;;;;5076818;28;20075;-79
2023/07/01 00:35:01;;;;;;;0.00;0.00;;;16.90;99.90;;;;;;5077597;28;20024;-80
2023/07/01 00:37:28;;;;;;;0.00;0.00;;;16.90;99.90;;;;;;5076171;28;20029;-79
2023/07/01 00:39:53;;;;;;;0.00;0.00;;;16.90;99.90;;;;;;5077482;28;20027;-80
2023/07/01 00:42:19;;;;;;;0.00;0.00;;;16.90;99.90;;;;;;5075781;28;20033;-80
2023/07/01 00:44:44;;;;;;;0.00;0.00;;;16.90;99.90;;;;;;5075111;28;20128;-80
2023/07/01 00:47:10;;;;;;;0.00;0.00;;;16.90;99.90;;;;;;5076065;28;20076;-80
2023/07/01 00:49:38;;;;;;;0.00;0.00;;;16.90;99.90;;;;;;5076429;28;20221;-79
2023/07/01 00:52:05;;;;;;;0.00;0.00;;;16.90;99.90;;;;;;5059641;28;20036;-80
2023/07/01 00:54:31;;;;;;;0.00;0.00;;;16.90;99.90;;;;;;5096742;28;20024;-80
2023/07/01 00:56:57;;;;;;;0.00;0.00;;;16.90;99.90;;;;;;5081120;28;20055;-80
2023/07/01 00:59:23;;;;;;;0.00;0.00;;;16.90;99.90;;;;;;5075905;28;20516;-80
2023/07/01 01:01:55;;;;;;;0.00;0.00;;;16.90;99.90;;;;;;5058599;28;20055;-81
2023/07/01 01:04:37;;;;;;;0.00;0.00;;;16.90;99.90;;;;;;5082215;28;20019;-80
2023/07/01 01:07:17;;;;;;;0.00;0.00;;;16.90;99.90;;;;;;5097289;28;20028;-80
2023/07/01 01:09:48;;;;;;;0.00;0.00;;;16.90;99.90;;;;;;5086593;28;20027;-81
2023/07/01 01:12:16;;;;;;;0.00;0.00;;;16.90;99.90;;;;;;5096889;28;20039;-79
2023/07/01 01:14:43;;;;;;;0.00;0.00;;;16.90;99.90;;;;;;5092394;28;20400;-80
2023/07/01 01:17:13;;;;;;;0.03;0.03;;;16.90;99.90;;;;;;5083752;28;20040;-80
2023/07/01 01:19:47;;;;;;;0.00;0.00;;;16.90;99.90;;;;;;5064916;28;20035;-80
2023/07/01 01:22:29;;;;;;;0.10;0.10;;;16.90;99.90;;;;;;5099283;28;20519;-80
2023/07/01 01:24:57;;;;;;;0.10;0.10;;;16.90;99.90;;;;;;5080487;28;20032;-79
2023/07/01 01:27:35;;;;;;;0.00;0.00;;;16.90;99.90;;;;;;5061698;28;20064;-80
2023/07/01 01:30:01;;;;;;;0.10;0.10;;;16.90;99.90;;;;;;5079703;28;20036;-80
2023/07/01 01:32:28;;;;;;;0.00;0.00;;;16.80;99.90;;;;;;5079640;28;20032;-80
2023/07/01 01:34:53;;;;;;;0.00;0.00;;;16.90;99.90;;;;;;5077831;28;20061;-79
2023/07/01 01:37:26;;;;;;;0.10;0.10;;;16.80;99.90;;;;;;5077761;28;20036;-79
2023/07/01 01:39:58;;;;;;;0.10;0.10;;;16.80;99.90;;;;;;5077668;28;20020;-79
2023/07/01 01:42:30;;;;;;;0.10;0.10;;;16.80;99.90;;;;;;5076859;28;20027;-79
2023/07/01 01:44:57;;;;;;;0.30;0.20;;;16.80;99.90;;;;;;5077292;28;20023;-79
2023/07/01 01:47:25;;;;;;;0.10;0.10;;;16.80;99.90;;;;;;5083275;28;20024;-80
2023/07/01 01:49:55;;;;;;;0.10;0.10;;;16.90;99.90;;;;;;5084874;28;20029;-79
2023/07/01 01:52:22;;;;;;;0.10;0.10;;;16.80;99.90;;;;;;5084689;28;20043;-79
2023/07/01 01:54:51;;;;;;;0.10;0.10;;;16.80;99.90;;;;;;5094651;28;20033;-80
2023/07/01 01:57:17;;;;;;;0.00;0.00;;;16.80;99.90;;;;;;5077261;28;20143;-79
2023/07/01 01:59:44;;;;;;;0.05;0.05;;;16.90;99.90;;;;;;5077412;28;20039;-79
2023/07/01 02:02:10;;;;;;;0.00;0.00;;;16.90;99.90;;;;;;5077282;28;20084;-80
2023/07/01 02:04:36;;;;;;;0.10;0.10;;;16.90;99.90;;;;;;5059112;28;20080;-81
2023/07/01 02:07:02;;;;;;;0.08;0.08;;;16.90;99.90;;;;;;5077743;28;20536;-80
2023/07/01 02:09:30;;;;;;;0.10;0.10;;;16.90;99.90;;;;;;5058977;28;20048;-80
2023/07/01 02:11:56;;;;;;;0.10;0.10;;;16.90;99.90;;;;;;5059440;28;20048;-79
2023/07/01 02:14:23;;;;;;;0.17;0.17;;;16.90;99.90;;;;;;5058075;28;20029;-80
2023/07/01 02:16:49;;;;;;;0.00;0.00;;;16.80;99.90;;;;;;5058628;28;20123;-79
2023/07/01 02:19:15;;;;;;;0.00;0.00;;;16.80;99.90;;;;;;5058914;28;20020;-79
2023/07/01 02:21:41;;;;;;;0.10;0.10;;;16.80;99.90;;;;;;5072536;28;20040;-80
2023/07/01 02:24:07;;;;;;;0.10;0.10;;;16.80;99.90;;;;;;5075653;28;20109;-79
2023/07/01 02:26:33;;;;;;;0.20;0.20;;;16.70;99.90;;;;;;5075745;28;20042;-78
2023/07/01 02:28:58;;;;;;;0.38;0.38;;;16.60;99.90;;;;;;5067976;28;20127;-79
2023/07/01 02:31:24;;;;;;;0.40;0.40;;;;;;;;;;5056588;28;20036;-79
2023/07/01 02:33:50;;;;;;;0.40;0.40;;;;;;;;;;5051710;28;20031;-79
2023/07/01 02:36:17;;;;;;;0.40;0.40;;;;;;;;;;5078234;28;20035;-79
2023/07/01 02:38:43;;;;;;;0.30;0.30;;;;;;;;;;5076817;28;20036;-80
2023/07/01 02:41:09;;;;;;;0.30;0.30;;;;;;;;;;5077929;28;20025;-80
2023/07/01 02:43:35;;;;;;;0.20;0.20;;;;;;;;;;5077088;28;20039;-79
2023/07/01 02:46:01;;;;;;;0.17;0.17;;;;;;;;;;5081020;28;20021;-79
2023/07/01 02:48:27;;;;;;;0.25;0.25;;;;;;;;;;5081303;28;20032;-79
2023/07/01 02:50:53;;;;;;;0.10;0.10;;;;;;;;;;5089983;28;20392;-79
2023/07/01 02:53:19;;;;;;;0.30;0.30;;;;;;;;;;5090898;28;20067;-79
2023/07/01 02:55:46;;;;;;;0.10;0.10;;;;;;;;;;5098627;28;20426;-80
2023/07/01 02:58:12;;;;;;;0.30;0.30;;;;;;;;;;5070218;28;20028;-80
2023/07/01 03:00:38;;;;;;;0.10;0.10;;;;;;;;;;5084761;28;20423;-80
2023/07/01 03:03:07;;;;;;;0.20;0.20;;;;;;;;;;5080278;28;20028;-79
2023/07/01 03:05:36;;;;;;;0.30;0.30;;;;;;;;;;5066495;28;20096;-79
2023/07/01 03:08:03;;;;;;;0.30;0.30;;;;;;;;;;5079752;28;20136;-79
2023/07/01 03:10:29;;;;;;;0.30;0.30;;;;;;;;;;5059982;28;20106;-80
2023/07/01 03:12:56;;;;;;;0.30;0.30;;;;;;;;;;5076287;28;20027;-79
2023/07/01 03:15:22;;;;;;;0.30;0.30;;;;;;;;;;5093275;28;20046;-79
2023/07/01 03:17:48;;;;;;;0.30;0.30;;;;;;;;;;5081614;28;20037;-79
2023/07/01 03:20:23;;;;;;;0.32;0.32;;;;;;;;;;5086617;28;20016;-79
2023/07/01 03:22:53;;;;;;;0.25;0.25;;;;;;;;;;5092316;28;20074;-79
2023/07/01 03:25:19;;;;;;;0.20;0.20;;;;;;;;;;5083244;28;20020;-79
2023/07/01 03:27:45;;;;;;;0.40;0.40;;;;;;;;;;5077459;28;20028;-80
2023/07/01 03:30:13;;;;;;;0.20;0.20;;;;;;;;;;5062306;28;20028;-80
2023/07/01 03:32:48;;;;;;;0.30;0.30;;;;;;;;;;5070113;28;20112;-80
2023/07/01 03:35:15;;;;;;;0.20;0.20;;;;;;;;;;5060174;28;20029;-80
2023/07/01 03:37:42;;;;;;;0.30;0.30;;;;;;;;;;5078609;28;20051;-79
2023/07/01 03:40:12;;;;;;;0.30;0.30;;;;;;;;;;5078825;28;20012;-79
2023/07/01 03:42:41;;;;;;;0.30;0.30;;;;;;;;;;5077879;28;20420;-79
2023/07/01 03:45:09;;;;;;;0.30;0.30;;;;;;;;;;5076831;28;20452;-79
2023/07/01 03:47:36;;;;;;;0.10;0.10;;;;;;;;;;5078590;28;20031;-80
2023/07/01 03:50:02;;;;;;;0.30;0.30;;;;;;;;;;5082849;28;20131;-80
2023/07/01 03:52:28;;;;;;;0.38;0.38;;;;;;;;;;5090674;28;20028;-79
2023/07/01 03:54:54;;;;;;;0.50;0.50;;;;;;;;;;5079177;28;20025;-80
2023/07/01 03:57:20;;;;;;;0.40;0.40;;;;;;;;;;5060414;28;20024;-78
2023/07/01 03:59:46;;;;;;;0.40;0.40;;;;;;;;;;5089981;28;20021;-78
2023/07/01 04:02:14;;;;;;;0.40;0.40;;;;;;;;;;5070369;28;20474;-79
2023/07/01 04:04:40;;;;;;;0.20;0.20;;;;;;;;;;5079944;28;20058;-78
2023/07/01 04:07:06;;;;;;;0.65;0.40;;;;;;;;;;5094265;28;20043;-78
2023/07/01 04:09:32;;;;;;;0.32;0.32;;;;;;;;;;5074735;28;20036;-80
2023/07/01 04:11:59;;;;;;;0.50;0.50;;;;;;;;;;5080411;28;20032;-80
2023/07/01 04:14:25;;;;;;;0.30;0.30;;;;;;;;;;5076630;28;20078;-79
2023/07/01 04:16:51;;;;;;;0.30;0.30;;;;;;;;;;5077632;28;20021;-79
2023/07/01 04:19:17;;;;;;;0.40;0.40;;;;;;;;;;5078539;28;20562;-79
2023/07/01 04:21:43;;;;;;;0.30;0.30;;;;;;;;;;5071870;28;20363;-78
2023/07/01 04:24:10;;;;;;;0.30;0.30;;;;;;;;;;5066300;28;20493;-79
2023/07/01 04:26:36;;;;;;;0.40;0.40;;;;;;;;;;5077660;28;20028;-79
2023/07/01 04:29:03;;;;;;;0.20;0.20;;;;;;;;;;5077318;28;20111;-79
2023/07/01 04:31:29;;;;;;;0.30;0.30;;;;;;;;;;5076845;28;20146;-79
2023/07/01 04:33:55;;;;;;;0.35;0.35;;;;;;;;;;5075502;28;20107;-79
2023/07/01 04:36:22;;;;;;;0.60;0.30;;;;;;;;;;5055568;28;20021;-79
2023/07/01 04:38:48;;;;;;;0.40;0.40;;;;;;;;;;5055261;28;20031;-78
2023/07/01 04:41:14;;;;;;;0.20;0.20;;;;;;;;;;5055057;28;20078;-79
2023/07/01 04:43:40;;;;;;;0.30;0.30;;;;;;;;;;5059460;28;20025;-78
2023/07/01 04:46:06;;;;;;;0.20;0.20;;;;;;;;;;5063785;28;20032;-79
2023/07/01 04:48:32;;;;;;;0.20;0.20;;;;;;;;;;5041356;28;20032;-79
2023/07/01 04:50:58;;;;;;;0.00;0.00;;;;;;;;;;5077743;28;20485;-78
2023/07/01 04:53:24;;;;;;;0.10;0.10;;;;;;;;;;5083150;28;20077;-78
2023/07/01 04:55:50;;;;;;;0.15;0.15;;;;;;;;;;5079213;28;20106;-79
2023/07/01 04:58:17;;;;;;;0.00;0.00;;;;;;;;;;5078734;28;20021;-78
2023/07/01 05:00:43;;;;;;;0.10;0.10;;;;;;;;;;5078253;28;20445;-78
2023/07/01 05:03:09;;;;;;;0.10;0.10;;;;;;;;;;5078512;28;20039;-79
2023/07/01 05:05:35;;;;;;;0.10;0.10;;;;;;;;;;5078528;28;20137;-80
2023/07/01 05:08:01;;;;;;;0.00;0.00;;;;;;;;;;5078285;28;20135;-80
2023/07/01 05:10:27;;;;;;;0.00;0.00;;;;;;;;;;5079405;28;20021;-80
2023/07/01 05:12:54;;;;;;;0.10;0.10;;;;;;;;;;5077895;28;20032;-79
2023/07/01 05:15:20;;;;;;;0.10;0.10;;;;;;;;;;5077843;28;20104;-80
2023/07/01 05:17:46;;;;;;;0.00;0.00;;;;;;;;;;5078813;28;20461;-79
2023/07/01 05:20:12;;;;;;;0.00;0.00;;;;;;;;;;5083395;28;20028;-79
2023/07/01 05:22:38;;;;;;;0.00;0.00;;;;;;;;;;5074930;28;20080;-80
2023/07/01 05:25:04;;;;;;;0.00;0.00;;;;;;;;;;5067332;28;20347;-80
2023/07/01 05:27:31;;;;;;;0.00;0.00;;;;;;;;;;5059349;28;20033;-79
2023/07/01 05:29:57;;;;;;;0.00;0.00;;;;;;;;;;5060673;28;20106;-79
2023/07/01 05:32:24;;;;;;;0.00;0.00;;;;;;;;;;5062482;28;20025;-80
2023/07/01 05:34:50;;;;;;;0.00;0.00;;;;;;;;;;5081339;28;20049;-80
2023/07/01 05:37:16;;;;;;;0.00;0.00;;;;;;;;;;5055085;28;20108;-79
2023/07/01 05:39:42;;;;;;;0.00;0.00;;;;;;;;;;5060282;28;20103;-79
2023/07/01 05:42:08;;;;;;;0.00;0.00;;;;;;;;;;5059330;28;20044;-79
2023/07/01 05:44:34;;;;;;;0.00;0.00;;;;;;;;;;5070628;28;20018;-79
2023/07/01 05:47:01;;;;;;;0.00;0.00;;;;;;;;;;5054915;28;20029;-79
2023/07/01 05:49:27;;;;;;;0.00;0.00;;;;;;;;;;5059725;28;20043;-78
2023/07/01 05:51:53;;;;;;;0.00;0.00;;;;;;;;;;5087848;28;20024;-78
2023/07/01 05:54:19;;;;;;;0.00;0.00;;;;;;;;;;5089427;28;20106;-80
2023/07/01 05:56:45;;;;;;;0.00;0.00;;;;;;;;;;5075047;28;20037;-79
2023/07/01 05:59:13;;;;;;;0.00;0.00;;;;;;;;;;5069049;28;20478;-78
2023/07/01 06:01:39;;;;;;;0.00;0.00;;;;;;;;;;5044809;28;20049;-79
2023/07/01 06:04:05;;;;;;;0.00;0.00;;;;;;;;;;5079118;28;20446;-80
2023/07/01 06:06:31;;;;;;;0.00;0.00;;;;;;;;;;5081816;28;20020;-80
2023/07/01 06:08:57;;;;;;;0.00;0.00;;;;;;;;;;5067496;28;20031;-80
2023/07/01 06:11:23;;;;;;;0.00;0.00;;;;;;;;;;5062084;28;20158;-80
2023/07/01 06:13:49;;;;;;;0.00;0.00;;;;;;;;;;5044529;28;20067;-79
2023/07/01 06:16:16;;;;;;;0.00;0.00;;;;;;;;;;5059105;28;20501;-79
2023/07/01 06:18:42;;;;;;;0.10;0.10;;;;;;;;;;5068351;28;20025;-79
2023/07/01 06:21:08;;;;;;;0.00;0.00;;;;;;;;;;5063694;28;20031;-80
2023/07/01 06:23:35;;;;;;;0.00;0.00;;;;;;;;;;5083633;28;20024;-78
2023/07/01 06:26:01;;;;;;;0.00;0.00;;;;;;;;;;5062088;28;20561;-79
2023/07/01 06:28:27;;;;;;;0.00;0.00;;;;;;;;;;5084780;28;20028;-79
2023/07/01 06:30:53;;;;;;;0.00;0.00;;;;;;;;;;5066962;28;20409;-80
2023/07/01 06:33:20;;;;;;;0.00;0.00;;;;;;;;;;5085324;28;20032;-81
2023/07/01 06:35:46;;;;;;;0.00;0.00;;;;;;;;;;5082264;28;20746;-79
2023/07/01 06:38:12;;;;;;;0.00;0.00;;;;;;;;;;5077897;28;20016;-79
2023/07/01 06:40:38;;;;;;;0.03;0.03;;;;;;;;;;5060810;28;20032;-79
2023/07/01 06:43:04;;;;;;;0.13;0.00;;;;;;;;;;5082682;28;20024;-79
2023/07/01 06:45:31;;;;;;;0.10;0.10;;;;;;;;;;5089018;28;20024;-80
2023/07/01 06:47:57;;;;;;;0.00;0.00;;;;;;;;;;5093761;28;20036;-79
2023/07/01 06:50:23;;;;;;;0.43;0.03;;;;;;;;;;5095988;28;20016;-80
2023/07/01 06:52:49;;;;;;;0.00;0.00;;;;;;;;;;5087962;28;20016;-79
2023/07/01 06:55:15;;;;;;;0.00;0.00;;;;;;;;;;5092921;28;20047;-79
2023/07/01 06:57:44;;;;;;;0.08;0.08;;;;;;;;;;5088611;28;20041;-79
2023/07/01 07:00:13;;;;;;;0.08;0.08;;;;;;;;;;5083932;28;20032;-79
2023/07/01 07:02:40;;;;;;;0.10;0.10;;;;;;;;;;5091715;28;20016;-79
2023/07/01 07:05:08;;;;;;;0.10;0.10;;;;;;;;;;5085791;28;20380;-80
2023/07/01 07:07:34;;;;;;;0.00;0.00;;;;;;;;;;5064994;28;20033;-80
2023/07/01 07:10:00;;;;;;;0.00;0.00;;;;;;;;;;5086356;28;20025;-80
2023/07/01 07:12:26;;;;;;;0.00;0.00;;;;;;;;;;5080605;28;20104;-80
2023/07/01 07:14:53;;;;;;;0.00;0.00;;;;;;;;;;5062318;28;20108;-80
2023/07/01 07:17:19;;;;;;;0.10;0.10;;;;;;;;;;5080297;28;20033;-80
2023/07/01 07:19:45;;;;;;;0.00;0.00;;;;;;;;;;5080507;28;20025;-79
2023/07/01 07:22:11;;;;;;;0.00;0.00;;;;;;;;;;5091539;28;20028;-78
2023/07/01 07:24:37;;;;;;;0.00;0.00;;;;;;;;;;5098876;28;20028;-80
2023/07/01 07:27:03;;;;;;;0.10;0.10;;;;;;;;;;5096448;28;20031;-79
2023/07/01 07:29:30;;;;;;;0.10;0.10;;;;;;;;;;5088173;28;20036;-79
2023/07/01 07:31:57;;;;;;;0.10;0.10;;;;;;;;;;5063973;28;20031;-79
2023/07/01 07:34:23;;;;;;;0.10;0.10;;;;;;;;;;5081987;28;20369;-80
2023/07/01 07:36:49;;;;;;;0.10;0.10;;;;;;;;;;5082761;28;20469;-80
2023/07/01 07:39:16;;;;;;;0.10;0.10;;;;;;;;;;5075812;28;20043;-79
2023/07/01 07:41:42;;;;;;;0.10;0.10;;;;;;;;;;5063189;28;20040;-78
2023/07/01 07:44:08;;;;;;;0.08;0.08;;;;;;;;;;5067651;28;20043;-79
2023/07/01 07:46:35;;;;;;;0.03;0.03;;;;;;;;;;5064060;28;20056;-79
2023/07/01 07:49:01;;;;;;;0.15;0.15;;;;;;;;;;5074140;28;20021;-79
2023/07/01 07:51:30;;;;;;;0.15;0.15;;;;;;;;;;5095700;28;20024;-79
2023/07/01 07:53:56;;;;;;;0.08;0.08;;;;;;;;;;5096102;28;20025;-78
2023/07/01 07:56:22;;;;;;;0.10;0.10;;;;;;;;;;5083159;28;20070;-79
2023/07/01 07:58:49;;;;;;;0.10;0.10;;;;;;;;;;5081982;28;20045;-79
2023/07/01 08:01:15;;;;;;;0.10;0.10;;;;;;;;;;5081507;28;20031;-79
2023/07/01 08:03:42;;;;;;;0.20;0.20;;;;;;;;;;5080749;28;20029;-79
2023/07/01 08:06:08;;;;;;;0.20;0.20;;;;;;;;;;5081570;28;20032;-79
2023/07/01 08:08:35;;;;;;;0.15;0.15;;;;;;;;;;5081687;28;20020;-80
2023/07/01 08:11:01;;;;;;;0.10;0.10;;;;;;;;;;5080319;28;20070;-80
2023/07/01 08:13:28;;;;;;;0.25;0.25;;;;;;;;;;5081023;28;20032;-80
2023/07/01 08:15:54;;;;;;;0.20;0.20;;;;;;;;;;5080565;28;20037;-79
2023/07/01 08:18:20;;;;;;;0.43;0.43;;;;;;;;;;5081794;28;20036;-79
2023/07/01 08:20:46;;;;;;;0.50;0.50;;;;;;;;;;5089347;28;20028;-79
2023/07/01 08:23:15;;;;;;;0.50;0.50;;;;;;;;;;5095380;28;20024;-81
2023/07/01 08:25:42;;;;;;;0.30;0.30;;;;;;;;;;5080985;28;20040;-80
2023/07/01 08:28:08;;;;;;;0.30;0.30;;;;;;;;;;5081497;28;20020;-79
2023/07/01 08:30:34;;;;;;;0.40;0.40;;;;;;;;;;5081537;28;20051;-79
2023/07/01 08:33:00;;;;;;;0.28;0.28;;;;;;;;;;5063770;28;20017;-79
2023/07/01 08:35:26;;;;;;;0.30;0.30;;;;;;;;;;5082353;28;20050;-80
2023/07/01 08:37:52;;;;;;;0.70;0.70;;;;;;;;;;5083110;28;20016;-80
2023/07/01 08:40:18;;;;;;;0.80;0.80;;;;;;;;;;5077909;28;20046;-79
2023/07/01 08:42:51;;;;;;;0.73;0.73;;;;;;;;;;5079044;28;20040;-79
2023/07/01 08:45:20;;;;;;;0.70;0.70;;;;;;;;;;5081601;28;20031;-79
2023/07/01 08:47:46;;;;;;;0.80;0.80;;;;;;;;;;5089191;28;20054;-78
2023/07/01 08:50:16;;;;;;;0.60;0.60;;;;;;;;;;5090928;28;20025;-80
2023/07/01 08:52:43;;;;;;;0.63;0.63;;;;;;;;;;5081561;28;20047;-78
2023/07/01 08:55:11;;;;;;;0.60;0.60;;;;;;;;;;5079442;28;20020;-80
2023/07/01 08:57:40;;;;;;;0.60;0.60;;;;;;;;;;5079818;28;20032;-79
2023/07/01 09:00:07;;;;;;;0.50;0.50;;;;;;;;;;5079753;28;20035;-79
2023/07/01 09:02:34;;;;;;;0.50;0.50;;;;;;;;;;5060873;28;20020;-79
2023/07/01 09:05:00;;;;;;;0.60;0.60;;;;;;;;;;5078664;28;20043;-79
2023/07/01 09:07:27;;;;;;;0.65;0.65;;;;;;;;;;5077546;28;20032;-80
2023/07/01 09:09:53;;;;;;;0.85;0.85;;;;;;;;;;5078863;28;20539;-79
2023/07/01 09:12:20;;;;;;;0.80;0.80;;;;;;;;;;5079380;28;20181;-79
2023/07/01 09:15:05;;;;;;;0.70;0.70;;;;;;;;;;5076629;28;20029;-79
2023/07/01 09:17:32;;;;;;;0.60;0.60;;;;;;;;;;5079395;28;20025;-81
2023/07/01 09:19:59;;;;;;;0.60;0.60;;;;;;;;;;5082251;28;20103;-80
2023/07/01 09:22:25;;;;;;;0.50;0.50;;;;;;;;;;5073627;28;20020;-79
2023/07/01 09:24:51;;;;;;;0.73;0.73;;;;;;;;;;5090416;28;20028;-80
2023/07/01 09:27:17;;;;;;;0.80;0.80;;;;;;;;;;5083357;28;20431;-79
2023/07/01 09:29:43;;;;;;;0.70;0.70;;;;;;;;;;5080804;28;20039;-80
2023/07/01 09:32:10;;;;;;;0.60;0.60;;;;;;;;;;5079049;28;20033;-81
2023/07/01 09:34:58;;;;;;;0.73;0.73;;;;;;;;;;5065000;28;20028;-81
2023/07/01 09:37:28;;;;;;;1.15;1.15;;;;;;;;;;5085097;28;20369;-80
2023/07/01 09:39:56;;;;;;;1.00;1.00;;;;;;;;;;5085601;28;20029;-81
2023/07/01 09:42:22;;;;;;;1.17;1.17;;;;;;;;;;5085233;28;20035;-81
2023/07/01 09:45:07;;;;;;;1.02;1.02;;;;;;;;;;5085604;28;20108;-79
2023/07/01 09:47:34;;;;;;;1.42;1.30;;;;;;;;;;5068975;28;20451;-78
2023/07/01 09:50:02;;;;;;;1.45;1.45;;;;;;;;;;5095274;28;20016;-78
2023/07/01 09:52:35;;;;;;;1.17;1.17;;;;;;;;;;5101032;28;20024;-80
2023/07/01 09:55:02;;;;;;;2.15;2.00;;;;;;;;;;5076829;28;20025;-80
2023/07/01 09:57:28;;;;;;;1.50;1.40;;;;;;;;;;5081182;28;20036;-78
2023/07/01 09:59:54;;;;;;;1.27;1.23;;;;;;;;;;5091744;28;20048;-81
2023/07/01 10:02:21;;;;;;;1.35;1.30;;;;;;;;;;5091386;28;20027;-79
2023/07/01 10:04:47;;;;;;;1.20;1.20;;;;;;;;;;5080778;28;20024;-79
2023/07/01 10:07:13;;;;;;;1.40;1.40;;;;;;;;;;5081768;28;20446;-80
2023/07/01 10:09:46;;;;;;;1.20;1.20;;;;;;;;;;5083070;28;20029;-82
2023/07/01 10:12:14;;;;;;;1.10;1.10;;;;;;;;;;5082476;28;20098;-80
2023/07/01 10:14:40;;;;;;;1.50;1.50;;;;;;;;;;5064705;28;20036;-80
2023/07/01 10:17:06;;;;;;;1.63;1.52;;;;;;;;;;5084149;28;20024;-80
2023/07/01 10:19:33;;;;;;;1.40;1.30;;;;;;;;;;5083871;28;20016;-79
2023/07/01 10:22:18;;;;;;;1.42;1.35;;;;;;;;;;5078574;28;20111;-81
2023/07/01 10:24:44;;;;;;;1.42;1.38;;;;;;;;;;5087522;28;20029;-80
2023/07/01 10:27:10;;;;;;;1.33;1.27;;;;;;;;;;5068622;28;20059;-80
2023/07/01 10:29:36;;;;;;;1.65;1.55;;;;;;;;;;5085019;28;20028;-81
2023/07/01 10:32:11;;;;;;;1.45;1.35;;;;;;;;;;5085031;28;20020;-82
2023/07/01 10:34:53;;;;;;;1.83;1.60;;;;;;;;;;5070349;28;20032;-81
2023/07/01 10:37:20;;;;;;;1.73;1.63;;;;;;;;;;5088358;28;20032;-81
2023/07/01 10:39:46;;;;;;;1.90;1.80;;;;;;;;;;5087901;28;20049;-80
2023/07/01 10:42:30;;;;;;;1.58;1.48;;;;;;;;;;5084929;28;20025;-81
2023/07/01 10:45:17;;;;;;;1.70;1.60;;;;;;;;;;5084046;28;20021;-80
2023/07/01 10:47:46;;;;;;;1.35;1.35;;;;;;;;;;5069874;28;20111;-80
2023/07/01 10:50:13;;;;;;;1.65;1.55;;;;;;;;;;5088157;28;20020;-82
2023/07/01 10:53:12;;;;;;;1.67;1.58;;;;;;;;;;5094661;28;20017;-81
2023/07/01 10:55:49;;;;;;;1.55;1.42;;;;;;;;;;5027368;28;20123;-80
2023/07/01 10:58:26;;;;;;;1.77;1.67;;;;;;;;;;5083637;28;20397;-79
2023/07/01 11:00:56;;;;;;;1.52;1.42;;;;;;;;;;5082276;28;20032;-80
2023/07/01 11:03:38;;;;;;;1.65;1.55;;;;;;;;;;5065165;28;20067;-81
2023/07/01 11:06:08;;;;;;;1.38;1.27;;;;;;;;;;5081631;28;20051;-81
2023/07/01 11:08:43;;;;;;;1.85;1.75;;;;;;;;;;5083303;28;20462;-80
2023/07/01 11:11:09;;;;;;;1.77;1.67;;;;;;;;;;5075241;28;20043;-81
2023/07/01 11:13:35;;;;;;;1.63;1.52;;;;;;;;;;5083523;28;20428;-81
2023/07/01 11:16:01;;;;;;;2.00;1.90;;;;;;;;;;5081553;28;20036;-80
2023/07/01 11:18:50;;;;;;;1.80;1.70;;;;;;;;;;5082505;28;20366;-81
2023/07/01 11:21:20;;;;;;;1.67;1.58;;;;;;;;;;5083980;28;20731;-79
2023/07/01 11:23:53;;;;;;;1.75;1.65;;;;;;;;;;5081798;28;20103;-79
2023/07/01 11:26:20;;;;;;;1.88;1.75;;;;;;;;;;5071601;28;20112;-81
2023/07/01 11:28:46;;;;;;;1.95;1.85;;;;;;;;;;5087087;22;20049;-80
2023/07/01 11:31:16;;;;;;;1.90;1.80;;;;;;;;;;5070471;28;20039;-82
2023/07/01 11:33:44;;;;;;;2.00;1.90;;;;;;;;;;5082154;28;20078;-81
2023/07/01 11:36:10;;;;;;;2.40;1.90;;;;;;;;;;5061118;28;20063;-81
2023/07/01 11:38:37;;;;;;;2.42;2.00;;;;;;;;;;5075149;28;20647;-81
2023/07/01 11:41:03;;;;;;;1.77;1.67;;;;;;;;;;5059517;28;20017;-81
2023/07/01 11:43:29;;;;;;;1.92;1.73;;;;;;;;;;5060157;28;20021;-82
2023/07/01 11:45:55;;;;;;;2.97;2.38;;;;;;;;;;5057992;28;20075;-81
2023/07/01 11:48:31;;;;;;;2.58;1.80;;;;;;;;;;5059409;28;20031;-80
2023/07/01 11:50:58;;;;;;;2.25;2.05;;;;;;;;;;5064002;28;20029;-81
2023/07/01 11:53:26;;;;;;;4.10;2.13;;;;;;;;;;5048080;28;20106;-82
2023/07/01 11:55:52;;;;;;;2.25;2.05;;;;;;;;;;5069074;28;20017;-79
2023/07/01 11:58:28;;;;;;;1.60;1.50;;;;;;;;;;5072715;28;20324;-81
2023/07/01 12:00:55;;;;;;;1.77;1.67;;;;;;;;;;5073547;28;20261;-80
2023/07/01 12:03:21;;;;;;;1.90;1.70;;;;;;;;;;5053602;28;20124;-81
2023/07/01 12:05:47;;;;;;;1.80;1.70;;;;;;;;;;5059406;28;20028;-81
2023/07/01 12:08:14;;;;;;;1.90;1.80;;;;;;;;;;5041847;28;20017;-82
2023/07/01 12:10:41;;;;;;;1.85;1.75;;;;;;;;;;5045497;28;20446;-82
2023/07/01 12:13:07;;;;;;;1.90;1.80;;;;;;;;;;5059424;28;20522;-82
2023/07/01 12:15:33;;;;;;;2.00;1.90;;;;;;;;;;5058807;28;20017;-82
2023/07/01 12:18:20;;;;;;;2.00;1.80;;;;;;;;;;5041435;28;20029;-82
2023/07/01 12:20:46;;;;;;;1.45;1.35;;;;;;;;;;5067871;28;20029;-82
2023/07/01 12:23:12;;;;;;;1.30;1.30;;;;;;;;;;5069920;28;20416;-82
2023/07/01 12:25:38;;;;;;;1.65;1.55;;;;;;;;;;5079198;28;20020;-82
2023/07/01 12:28:05;;;;;;;1.52;1.40;;;;;;;;;;5079469;28;20031;-81
2023/07/01 12:30:31;;;;;;;2.60;1.45;;;;;;;;;;5069462;28;20033;-79
2023/07/01 12:32:57;;;;;;;1.55;1.45;;;;;;;;;;5066498;28;20036;-79
2023/07/01 12:35:36;;;;;;;1.58;1.50;;;;;;;;;;5049690;28;20036;-80
2023/07/01 12:38:13;;;;;;;1.38;1.38;;;;;;;;;;5066139;28;20039;-80
2023/07/01 12:40:39;;;;;;;2.20;2.00;;;;;;;;;;5051082;28;20020;-80
2023/07/01 12:43:36;;;;;;;1.75;1.65;;;;;;;;;;5073100;28;20029;-79
2023/07/01 12:46:06;;;;;;;1.70;1.60;;;;;;;;;;5044829;28;20022;-78
2023/07/01 12:48:43;;;;;;;4.35;1.98;;;;;;;;;;5037564;28;20013;-78
2023/07/01 12:51:22;;;;;;;2.58;2.38;;;;;;;;;;5044174;28;20063;-80
2023/07/01 12:53:49;;;;;;;1.75;1.65;;;;;;;;;;5069711;28;20035;-80
2023/07/01 12:56:19;;;;;;;1.70;1.55;;;;;;;;;;5069659;28;20203;-79
2023/07/01 12:58:46;;;;;;;1.67;1.58;;;;;;;;;;5055479;28;20047;-79
2023/07/01 13:01:14;;;;;;;1.50;1.40;;;;;;;;;;5079095;28;20048;-77
2023/07/01 13:03:41;;;;;;;1.20;1.20;;;;;;;;;;5061219;28;20100;-80
2023/07/01 13:06:37;;;;;;;1.55;1.45;;;;;;;;;;5070317;28;20099;-81
2023/07/01 13:09:05;;;;;;;1.42;1.40;;;;;;;;;;5060433;28;20032;-78
2023/07/01 13:11:33;;;;;;;1.20;1.20;;;;;;;;;;5081058;28;20187;-80
2023/07/01 13:14:00;;;;;;;1.13;1.02;;;;;;;;;;5081452;28;20080;-83
2023/07/01 13:16:34;;;;;;;1.23;1.23;;;;;;;;;;5078382;28;20055;-81
2023/07/01 13:19:05;;;;;;;1.40;1.30;;;;;;;;;;5047612;28;20156;-81
2023/07/01 13:21:37;;;;;;;1.20;1.20;;;;;;;;;;5069598;28;20468;-81
2023/07/01 13:24:08;;;;;;;2.03;1.23;;;;;;;;;;5045292;28;20049;-83
2023/07/01 13:26:34;;;;;;;1.23;1.23;;;;;;;;;;5056964;28;20510;-81
2023/07/01 13:29:00;;;;;;;1.38;1.27;;;;;;;;;;5046990;28;20056;-79
2023/07/01 13:31:27;;;;;;;1.40;1.30;;;;;;;;;;5056753;28;20054;-80
2023/07/01 13:33:57;;;;;;;1.52;1.42;;;;;;;;;;5064829;28;20032;-82
2023/07/01 13:36:23;;;;;;;1.08;1.08;;;;;;;;;;5052172;28;20029;-81
2023/07/01 13:38:50;;;;;;;1.15;1.15;;;;;;;;;;5066905;28;20021;-80
2023/07/01 13:41:16;;;;;;;1.50;1.40;;;;;;;;;;5064821;28;20476;-82
2023/07/01 13:43:42;;;;;;;1.50;1.40;;;;;;;;;;5038543;28;20423;-82
2023/07/01 13:46:10;;;;;;;1.50;1.40;;;;;;;;;;5069631;28;20028;-79
2023/07/01 13:48:42;;;;;;;1.55;1.45;;;;;;;;;;5062909;28;20029;-79
2023/07/01 13:51:08;;;;;;;1.27;1.27;;;;;;;;;;5048982;28;20029;-80
2023/07/01 13:53:36;;;;;;;2.50;1.67;;;;;;;;;;5060543;28;20036;-82
2023/07/01 13:56:03;;;;;;;1.75;1.60;;;;;;;;;;5078301;28;20044;-78
2023/07/01 13:58:29;;;;;;;1.60;1.50;;;;;;;;;;5081115;28;20029;-82
2023/07/01 14:00:56;;;;;;;2.38;1.50;;;;;;;;;;5093969;28;20101;-79
2023/07/01 14:03:22;;;;;;;2.05;1.80;;;;;;;;;;5065634;28;20106;-77
2023/07/01 14:05:55;;;;;;;2.00;1.80;;;;;;;;;;5069295;28;20388;-80
2023/07/01 14:08:22;;;;;;;1.73;1.63;;;;;;;;;;5073206;28;20025;-78
2023/07/01 14:10:49;;;;;;;1.67;1.58;;;;;;;;;;5064215;28;20021;-77
2023/07/01 14:13:15;;;;;;;2.17;1.67;;;;;;;;;;5070216;28;20029;-80
2023/07/01 14:15:43;;;;;;;1.65;1.55;;;;;;;;;;5053759;28;20021;-81
2023/07/01 14:18:18;;;;;;;1.23;1.23;;;;;;;;;;5076749;28;20123;-78
2023/07/01 14:20:46;;;;;;;1.55;1.42;;;;;;;;;;5077423;28;20009;-79
2023/07/01 14:23:23;;;;;;;1.60;1.50;;;;;;;;;;5070853;28;20017;-77
2023/07/01 14:25:51;;;;;;;1.70;1.60;;;;;;;;;;5058851;28;20024;-78